Time;durP1;ratioP1;P1;durP2;ratioP2;P2;SDS_P1;SDS_P2;PMS_P1;PMS_P2;Temp;Humidity;BMP_temperature;BMP_pressure;BME280_temperature;BME280_humidity;BME280_pressure;Samples;Min_cycle;Max_cycle;Signal;HPM_P1;HPM_P2
2023/11/23 00:00:36;;;;;;;45.90;23.63;;;7.60;99.90;;;;;;5010041;28;20018;-89
2023/11/23 00:03:02;;;;;;;46.00;24.08;;;7.50;99.90;;;;;;5012787;28;20087;-90
2023/11/23 00:05:28;;;;;;;47.78;23.42;;;7.50;99.90;;;;;;5001456;28;20041;-88
2023/11/23 00:07:54;;;;;;;49.33;24.02;;;7.50;99.90;;;;;;5015262;28;20481;-89
2023/11/23 00:10:20;;;;;;;43.13;23.55;;;7.50;99.90;;;;;;5014608;28;20079;-89
2023/11/23 00:12:46;;;;;;;45.85;26.00;;;7.50;99.90;;;;;;5015102;28;20026;-89
2023/11/23 00:15:11;;;;;;;53.78;26.02;;;7.50;99.90;;;;;;5015036;28;20112;-89
2023/11/23 00:17:37;;;;;;;45.47;24.17;;;7.50;99.90;;;;;;5032899;28;20057;-90
2023/11/23 00:20:06;;;;;;;45.63;24.10;;;7.50;99.90;;;;;;5014827;28;20029;-90
2023/11/23 00:22:32;;;;;;;51.33;25.30;;;7.50;99.90;;;;;;5011610;28;20385;-90
2023/11/23 00:24:58;;;;;;;46.35;24.38;;;7.60;99.90;;;;;;5012612;28;20044;-91
2023/11/23 00:27:24;;;;;;;56.10;28.20;;;7.60;99.90;;;;;;5010522;28;20489;-89
2023/11/23 00:29:49;;;;;;;50.22;25.83;;;7.60;99.90;;;;;;5010238;28;20466;-88
2023/11/23 00:32:15;;;;;;;42.53;24.60;;;7.60;99.90;;;;;;5014634;28;20171;-88
2023/11/23 00:34:40;;;;;;;54.65;27.23;;;7.60;99.90;;;;;;5013775;28;20032;-89
2023/11/23 00:37:09;;;;;;;53.22;26.52;;;7.60;99.90;;;;;;4998195;28;20034;-89
2023/11/23 00:39:35;;;;;;;54.00;27.20;;;7.60;99.90;;;;;;4999154;28;20069;-89
2023/11/23 00:42:01;;;;;;;54.67;29.27;;;7.60;99.90;;;;;;5005264;28;20037;-89
2023/11/23 00:44:27;;;;;;;51.88;26.90;;;7.70;99.90;;;;;;5010168;28;20481;-89
2023/11/23 00:46:52;;;;;;;50.22;27.48;;;7.70;99.90;;;;;;5018223;28;20025;-89
2023/11/23 00:49:19;;;;;;;51.45;26.23;;;7.70;99.90;;;;;;5008681;28;20501;-89
2023/11/23 00:51:45;;;;;;;45.38;24.65;;;7.70;99.90;;;;;;5017951;28;20558;-89
2023/11/23 00:54:10;;;;;;;48.83;26.55;;;7.80;99.90;;;;;;5015813;28;20030;-89
2023/11/23 00:56:39;;;;;;;49.67;26.27;;;7.80;99.90;;;;;;5029074;28;20030;-89
2023/11/23 00:59:05;;;;;;;55.22;27.17;;;7.80;99.90;;;;;;5018758;28;20044;-89
2023/11/23 01:01:30;;;;;;;51.22;25.98;;;7.80;99.90;;;;;;5017484;28;20030;-88
2023/11/23 01:03:56;;;;;;;51.60;26.98;;;7.90;99.90;;;;;;5018777;28;20032;-88
2023/11/23 01:06:21;;;;;;;53.63;27.92;;;7.90;99.90;;;;;;5009719;28;20473;-89
2023/11/23 01:08:47;;;;;;;55.97;28.70;;;7.90;99.90;;;;;;5033192;28;20465;-89
2023/11/23 01:11:12;;;;;;;52.03;27.33;;;7.90;99.90;;;;;;5016838;28;20025;-89
2023/11/23 01:13:41;;;;;;;50.78;26.98;;;8.00;99.90;;;;;;5012566;28;20132;-89
2023/11/23 01:16:07;;;;;;;50.25;26.83;;;8.00;99.90;;;;;;5014574;28;20038;-89
2023/11/23 01:18:32;;;;;;;50.75;26.77;;;8.10;99.90;;;;;;5017298;28;20106;-89
2023/11/23 01:20:58;;;;;;;46.17;26.42;;;8.10;99.90;;;;;;4999670;28;20053;-89
2023/11/23 01:23:23;;;;;;;47.33;27.25;;;8.10;99.90;;;;;;5017687;28;20124;-89
2023/11/23 01:25:49;;;;;;;45.55;26.98;;;8.10;99.90;;;;;;5006989;28;20032;-88
2023/11/23 01:28:15;;;;;;;52.40;28.35;;;8.10;99.90;;;;;;5035038;28;20119;-89
2023/11/23 01:30:40;;;;;;;46.47;27.90;;;8.10;99.90;;;;;;5033941;28;20033;-89
2023/11/23 01:33:06;;;;;;;46.10;26.70;;;8.20;99.90;;;;;;5019559;28;20033;-89
2023/11/23 01:35:31;;;;;;;48.72;27.58;;;8.20;99.90;;;;;;5017715;28;20033;-89
2023/11/23 01:37:57;;;;;;;46.38;26.98;;;8.20;99.90;;;;;;5034379;28;20049;-89
2023/11/23 01:40:23;;;;;;;47.92;27.48;;;8.20;99.90;;;;;;5030032;28;20037;-89
2023/11/23 01:42:48;;;;;;;44.78;26.38;;;8.20;99.90;;;;;;5018461;28;20033;-89
2023/11/23 01:45:14;;;;;;;51.15;27.80;;;8.30;99.90;;;;;;5030786;28;20080;-89
2023/11/23 01:47:44;;;;;;;46.28;27.25;;;8.40;99.90;;;;;;5014685;28;20069;-89
2023/11/23 01:50:10;;;;;;;42.65;25.40;;;8.40;99.90;;;;;;5022199;28;20022;-89
2023/11/23 01:52:36;;;;;;;47.90;26.98;;;8.40;99.90;;;;;;5033314;28;20021;-89
2023/11/23 01:55:06;;;;;;;42.15;26.40;;;8.50;99.90;;;;;;5017623;28;20033;-89
2023/11/23 01:57:35;;;;;;;43.35;25.83;;;8.50;99.90;;;;;;5034354;28;20033;-89
2023/11/23 02:00:01;;;;;;;44.75;27.15;;;8.50;99.90;;;;;;5018999;28;20138;-89
2023/11/23 02:02:27;;;;;;;51.67;28.02;;;8.60;99.90;;;;;;5004295;28;20092;-89
2023/11/23 02:04:57;;;;;;;45.22;26.63;;;8.60;99.90;;;;;;5014537;28;20053;-89
2023/11/23 02:07:23;;;;;;;43.40;25.55;;;8.60;99.90;;;;;;5020459;28;20036;-89
2023/11/23 02:09:48;;;;;;;45.00;26.38;;;8.70;99.90;;;;;;5010383;28;20029;-89
2023/11/23 02:12:15;;;;;;;46.17;26.48;;;8.70;99.90;;;;;;5031110;28;20018;-89
2023/11/23 02:14:41;;;;;;;46.30;26.52;;;8.80;99.90;;;;;;5024302;28;20393;-89
2023/11/23 02:17:15;;;;;;;48.90;27.25;;;8.70;99.90;;;;;;5024090;28;20022;-89
2023/11/23 02:19:40;;;;;;;48.70;25.15;;;8.80;99.90;;;;;;5015204;28;20026;-89
2023/11/23 02:22:07;;;;;;;47.22;25.25;;;8.80;99.90;;;;;;5013973;28;20456;-89
2023/11/23 02:24:32;;;;;;;40.63;24.15;;;8.80;99.90;;;;;;5009747;28;20033;-89
2023/11/23 02:26:58;;;;;;;40.97;24.98;;;8.90;99.90;;;;;;5017082;28;20037;-89
2023/11/23 02:29:24;;;;;;;42.47;24.42;;;8.80;99.90;;;;;;5028610;28;20033;-89
2023/11/23 02:31:50;;;;;;;42.78;25.25;;;8.90;99.90;;;;;;5034834;28;20537;-89
2023/11/23 02:34:15;;;;;;;42.63;24.05;;;8.90;99.90;;;;;;5015697;28;20116;-88
2023/11/23 02:36:41;;;;;;;39.85;23.58;;;8.90;99.90;;;;;;5014966;28;20026;-89
2023/11/23 02:39:06;;;;;;;40.58;22.30;;;9.00;99.90;;;;;;5012426;28;20049;-89
2023/11/23 02:41:32;;;;;;;43.60;24.35;;;9.00;99.90;;;;;;5003699;28;20022;-89
2023/11/23 02:43:57;;;;;;;37.00;22.38;;;9.00;99.90;;;;;;5015819;28;20021;-89
2023/11/23 02:46:23;;;;;;;41.13;22.20;;;9.00;99.90;;;;;;5015618;28;20037;-89
2023/11/23 02:48:48;;;;;;;37.72;21.77;;;9.10;99.90;;;;;;5015212;28;20041;-89
2023/11/23 02:51:14;;;;;;;37.45;21.75;;;9.10;99.90;;;;;;5015494;28;20029;-89
2023/11/23 02:53:43;;;;;;;33.08;21.27;;;9.20;99.90;;;;;;5016184;28;20052;-89
2023/11/23 02:56:10;;;;;;;38.95;21.88;;;9.20;99.90;;;;;;5014592;28;20032;-89
2023/11/23 02:58:37;;;;;;;39.78;20.77;;;9.20;99.90;;;;;;5015269;28;20036;-89
2023/11/23 03:01:03;;;;;;;38.38;21.48;;;9.20;99.90;;;;;;5003439;28;20053;-89
2023/11/23 03:03:29;;;;;;;31.45;19.38;;;9.30;99.90;;;;;;4996689;28;20111;-88
2023/11/23 03:05:55;;;;;;;31.15;19.35;;;9.30;99.90;;;;;;5008244;28;20364;-89
2023/11/23 03:08:20;;;;;;;31.40;18.67;;;9.30;99.90;;;;;;5012506;28;20049;-89
2023/11/23 03:10:46;;;;;;;33.60;19.42;;;9.30;99.90;;;;;;5013359;28;20021;-89
2023/11/23 03:13:11;;;;;;;33.15;19.17;;;9.40;99.90;;;;;;5015716;28;20076;-89
2023/11/23 03:15:37;;;;;;;33.90;19.60;;;9.40;99.90;;;;;;5006008;28;20022;-89
2023/11/23 03:18:03;;;;;;;30.70;18.95;;;9.40;99.90;;;;;;5014158;28;20026;-89
2023/11/23 03:20:29;;;;;;;30.17;18.35;;;9.40;99.90;;;;;;5006575;28;20401;-89
2023/11/23 03:22:55;;;;;;;30.08;18.92;;;9.50;99.90;;;;;;5004788;28;20473;-89
2023/11/23 03:25:20;;;;;;;29.58;18.50;;;9.50;99.90;;;;;;5001263;28;20075;-89
2023/11/23 03:27:46;;;;;;;33.72;19.70;;;9.50;99.90;;;;;;5013550;28;20041;-89
2023/11/23 03:30:12;;;;;;;31.83;19.08;;;9.50;99.90;;;;;;5013671;28;20075;-89
2023/11/23 03:32:38;;;;;;;32.85;18.88;;;9.50;99.90;;;;;;5015725;28;20124;-89
2023/11/23 03:35:04;;;;;;;31.10;19.15;;;9.50;99.90;;;;;;5016120;28;20037;-89
2023/11/23 03:37:29;;;;;;;34.92;20.92;;;9.60;99.90;;;;;;5011108;28;20038;-89
2023/11/23 03:39:57;;;;;;;34.90;20.25;;;9.60;99.90;;;;;;5021792;28;20049;-89
2023/11/23 03:42:22;;;;;;;33.97;19.63;;;9.60;99.90;;;;;;5010723;28;20096;-89
2023/11/23 03:44:48;;;;;;;30.77;19.10;;;9.60;99.90;;;;;;5016057;28;20021;-90
2023/11/23 03:47:13;;;;;;;31.77;20.73;;;9.60;99.90;;;;;;5014913;28;20072;-89
2023/11/23 03:49:40;;;;;;;31.58;19.88;;;9.70;99.90;;;;;;5005643;28;20494;-89
2023/11/23 03:52:05;;;;;;;33.67;19.90;;;9.70;99.90;;;;;;5004988;28;20124;-89
2023/11/23 03:54:31;;;;;;;32.10;19.98;;;9.70;99.90;;;;;;5015154;28;20116;-89
2023/11/23 03:56:58;;;;;;;28.27;17.95;;;9.70;99.90;;;;;;5011320;28;20037;-89
2023/11/23 03:59:24;;;;;;;29.90;18.27;;;9.80;99.90;;;;;;5007813;28;20037;-90
2023/11/23 04:01:50;;;;;;;29.48;17.73;;;9.80;99.90;;;;;;5007495;28;20022;-89
2023/11/23 04:04:15;;;;;;;30.33;18.67;;;9.80;99.90;;;;;;5005688;28;20037;-89
2023/11/23 04:06:41;;;;;;;35.50;17.92;;;9.80;99.90;;;;;;5015095;28;20104;-90
2023/11/23 04:09:10;;;;;;;28.27;17.60;;;9.80;99.90;;;;;;5015284;28;20128;-88
2023/11/23 04:11:35;;;;;;;28.75;17.98;;;9.90;99.90;;;;;;5013353;28;20595;-89
2023/11/23 04:14:01;;;;;;;34.28;17.77;;;9.90;99.90;;;;;;5009864;28;20148;-89
2023/11/23 04:16:26;;;;;;;24.25;17.30;;;9.90;99.90;;;;;;4998749;28;20057;-89
2023/11/23 04:18:52;;;;;;;26.88;16.90;;;9.90;99.90;;;;;;5011941;28;20116;-89
2023/11/23 04:21:17;;;;;;;26.63;17.95;;;9.90;99.90;;;;;;5012622;28;20025;-89
2023/11/23 04:23:43;;;;;;;25.52;16.08;;;9.90;99.90;;;;;;5011228;28;20515;-89
2023/11/23 04:26:08;;;;;;;29.65;17.52;;;9.90;99.90;;;;;;4996787;28;20026;-89
2023/11/23 04:28:35;;;;;;;30.98;17.48;;;9.90;99.90;;;;;;4995591;28;20116;-89
2023/11/23 04:31:03;;;;;;;25.73;17.25;;;9.80;99.90;;;;;;5005611;28;20068;-87
2023/11/23 04:33:29;;;;;;;27.00;16.27;;;9.80;99.90;;;;;;5031837;28;20159;-89
2023/11/23 04:35:54;;;;;;;32.63;17.00;;;9.70;99.90;;;;;;5009347;28;20109;-89
2023/11/23 04:38:20;;;;;;;27.70;15.52;;;9.70;99.90;;;;;;5011507;28;20184;-89
2023/11/23 04:40:45;;;;;;;27.73;16.17;;;9.60;99.90;;;;;;5024681;28;20033;-89
2023/11/23 04:43:12;;;;;;;27.52;16.25;;;9.60;99.90;;;;;;5013727;28;20538;-89
2023/11/23 04:45:38;;;;;;;26.75;14.95;;;9.60;99.90;;;;;;5010959;28;20085;-89
2023/11/23 04:48:04;;;;;;;31.65;16.38;;;9.60;99.90;;;;;;5011632;28;20070;-89
2023/11/23 04:50:29;;;;;;;22.38;14.65;;;9.60;99.90;;;;;;5012841;28;20030;-89
2023/11/23 04:52:57;;;;;;;23.88;15.27;;;9.60;99.90;;;;;;5019455;28;20035;-89
2023/11/23 04:55:22;;;;;;;26.52;14.77;;;9.60;99.90;;;;;;5012649;28;20049;-89
2023/11/23 04:57:48;;;;;;;26.80;15.30;;;9.60;99.90;;;;;;5009156;28;20029;-89
2023/11/23 05:00:14;;;;;;;23.58;14.27;;;9.60;99.90;;;;;;5012433;28;20542;-89
2023/11/23 05:02:42;;;;;;;25.17;16.25;;;9.60;99.90;;;;;;5011579;28;20021;-89
2023/11/23 05:05:11;;;;;;;25.70;14.32;;;9.50;99.90;;;;;;5006240;28;20029;-88
2023/11/23 05:07:39;;;;;;;27.05;15.65;;;9.50;99.90;;;;;;5005419;28;20029;-89
2023/11/23 05:10:07;;;;;;;25.98;13.63;;;9.50;99.90;;;;;;5011220;28;20473;-89
2023/11/23 05:12:33;;;;;;;27.73;14.75;;;9.50;99.90;;;;;;5013024;28;20474;-89
2023/11/23 05:14:59;;;;;;;23.48;14.02;;;9.50;99.90;;;;;;5014109;28;20028;-89
2023/11/23 05:17:25;;;;;;;22.50;13.90;;;9.50;99.90;;;;;;5014332;28;20489;-88
2023/11/23 05:19:50;;;;;;;24.42;13.82;;;9.50;99.90;;;;;;5020265;28;20029;-90
2023/11/23 05:22:16;;;;;;;24.70;14.80;;;9.50;99.90;;;;;;5006600;28;20029;-89
2023/11/23 05:24:41;;;;;;;24.40;15.20;;;9.50;99.90;;;;;;5016143;28;20029;-89
2023/11/23 05:27:07;;;;;;;25.67;15.50;;;9.60;99.90;;;;;;5017606;28;20374;-89
2023/11/23 05:29:32;;;;;;;27.08;15.10;;;9.60;99.90;;;;;;5005475;28;20080;-89
2023/11/23 05:31:58;;;;;;;23.85;15.82;;;9.70;99.90;;;;;;5016362;28;20025;-89
2023/11/23 05:34:23;;;;;;;28.60;17.83;;;9.70;99.90;;;;;;5014249;28;20025;-89
2023/11/23 05:36:49;;;;;;;32.15;17.20;;;9.70;99.90;;;;;;5016977;28;20033;-89
2023/11/23 05:39:15;;;;;;;29.08;16.00;;;9.70;99.90;;;;;;5017529;28;20063;-89
2023/11/23 05:41:40;;;;;;;26.02;15.73;;;9.60;99.90;;;;;;5018221;28;20021;-89
2023/11/23 05:44:07;;;;;;;29.02;16.58;;;9.70;99.90;;;;;;5018727;28;20096;-89
2023/11/23 05:46:33;;;;;;;27.60;15.13;;;9.60;99.90;;;;;;5016761;28;20022;-89
2023/11/23 05:48:59;;;;;;;26.83;16.00;;;9.70;99.90;;;;;;5014819;28;20033;-88
2023/11/23 05:51:24;;;;;;;28.77;15.38;;;9.70;99.90;;;;;;5017047;28;20029;-89
2023/11/23 05:53:50;;;;;;;26.30;16.48;;;9.70;99.90;;;;;;5027935;28;20112;-89
2023/11/23 05:56:16;;;;;;;26.27;17.48;;;9.70;99.90;;;;;;5017107;28;20473;-89
2023/11/23 05:58:42;;;;;;;29.73;16.52;;;9.80;99.90;;;;;;5010051;28;20050;-89
2023/11/23 06:01:07;;;;;;;30.58;16.38;;;9.80;99.90;;;;;;5019125;28;20033;-89
2023/11/23 06:03:33;;;;;;;30.02;16.65;;;9.90;99.90;;;;;;5020487;28;20060;-89
2023/11/23 06:05:58;;;;;;;31.13;17.42;;;9.90;99.90;;;;;;5020063;28;20071;-89
2023/11/23 06:08:26;;;;;;;28.10;16.67;;;10.00;99.90;;;;;;5018084;28;20048;-89
2023/11/23 06:10:51;;;;;;;26.42;16.05;;;10.00;99.90;;;;;;5007944;28;20490;-89
2023/11/23 06:13:17;;;;;;;28.30;16.20;;;10.00;99.90;;;;;;5015955;28;20055;-88
2023/11/23 06:15:43;;;;;;;22.83;14.55;;;10.10;99.90;;;;;;5017882;28;20017;-89
2023/11/23 06:18:08;;;;;;;23.70;15.00;;;10.10;99.90;;;;;;5018443;28;20112;-88
2023/11/23 06:20:34;;;;;;;27.02;14.57;;;10.10;99.90;;;;;;5015050;28;20176;-89
2023/11/23 06:22:59;;;;;;;25.25;14.75;;;10.10;99.90;;;;;;5019423;28;20025;-89
2023/11/23 06:25:25;;;;;;;23.95;14.20;;;10.20;99.90;;;;;;5015587;28;20035;-87
2023/11/23 06:27:51;;;;;;;25.15;14.35;;;10.20;99.90;;;;;;5007235;28;20034;-89
2023/11/23 06:30:17;;;;;;;22.50;14.00;;;10.20;99.90;;;;;;5011709;28;20135;-88
2023/11/23 06:32:43;;;;;;;24.75;12.45;;;10.20;99.90;;;;;;5016837;28;20116;-89
2023/11/23 06:35:09;;;;;;;20.13;13.20;;;10.20;99.90;;;;;;5012172;28;20120;-88
2023/11/23 06:37:35;;;;;;;26.05;13.13;;;10.20;99.90;;;;;;5015643;28;20100;-89
2023/11/23 06:40:00;;;;;;;22.42;12.95;;;10.20;99.90;;;;;;5014098;28;20032;-89
2023/11/23 06:42:26;;;;;;;23.85;12.27;;;10.20;99.90;;;;;;5006947;28;20069;-89
2023/11/23 06:44:53;;;;;;;22.55;12.10;;;10.20;99.90;;;;;;5027366;28;20389;-89
2023/11/23 06:47:19;;;;;;;18.75;11.45;;;10.20;99.90;;;;;;5016285;28;20377;-89
2023/11/23 06:49:45;;;;;;;18.80;12.13;;;10.20;99.90;;;;;;5016878;28;20289;-89
2023/11/23 06:52:10;;;;;;;24.63;12.10;;;10.10;99.90;;;;;;5015666;28;20030;-89
2023/11/23 06:54:36;;;;;;;24.65;11.77;;;10.10;99.90;;;;;;5012856;28;20022;-89
2023/11/23 06:57:02;;;;;;;19.35;10.48;;;10.10;99.90;;;;;;5013567;28;20017;-89
2023/11/23 06:59:28;;;;;;;16.70;10.10;;;10.10;99.90;;;;;;5011499;28;20033;-89
2023/11/23 07:01:53;;;;;;;21.80;11.82;;;10.00;99.90;;;;;;5013665;28;20065;-89
2023/11/23 07:04:21;;;;;;;19.52;11.50;;;10.00;99.90;;;;;;5010044;28;20507;-89
2023/11/23 07:06:46;;;;;;;20.23;10.85;;;10.00;99.90;;;;;;5011813;28;20037;-89
2023/11/23 07:09:13;;;;;;;17.48;10.60;;;10.10;99.90;;;;;;5012473;28;20037;-89
2023/11/23 07:11:40;;;;;;;21.90;12.35;;;10.00;99.90;;;;;;5012540;28;20051;-89
2023/11/23 07:14:06;;;;;;;20.20;11.25;;;10.00;99.90;;;;;;5005714;28;20556;-89
2023/11/23 07:16:31;;;;;;;21.40;12.38;;;10.00;99.90;;;;;;5015616;28;20602;-88
2023/11/23 07:18:58;;;;;;;22.17;12.40;;;10.00;99.90;;;;;;5010275;28;20029;-87
2023/11/23 07:21:23;;;;;;;24.17;12.77;;;10.00;99.90;;;;;;5019456;28;20036;-88
2023/11/23 07:23:49;;;;;;;23.08;11.50;;;10.10;99.90;;;;;;5027259;28;20025;-87
2023/11/23 07:26:14;;;;;;;22.85;11.75;;;10.10;99.90;;;;;;5015008;28;20033;-88
2023/11/23 07:28:40;;;;;;;24.40;10.77;;;10.10;99.90;;;;;;5016542;28;20042;-89
2023/11/23 07:31:07;;;;;;;21.17;10.68;;;10.10;99.90;;;;;;5018900;28;20033;-88
2023/11/23 07:33:35;;;;;;;20.05;10.35;;;10.10;99.90;;;;;;5016953;28;20030;-88
2023/11/23 07:36:04;;;;;;;15.00;9.35;;;10.20;99.90;;;;;;5004967;28;20059;-89
2023/11/23 07:38:32;;;;;;;15.90;9.88;;;10.20;99.90;;;;;;5016833;28;20409;-88
2023/11/23 07:40:58;;;;;;;20.77;11.45;;;10.20;99.90;;;;;;5018340;28;20032;-88
2023/11/23 07:43:24;;;;;;;17.08;10.18;;;10.20;99.90;;;;;;5019556;28;20082;-88
2023/11/23 07:45:50;;;;;;;16.60;11.30;;;10.30;99.90;;;;;;5017519;28;20025;-88
2023/11/23 07:48:16;;;;;;;21.95;11.27;;;10.30;99.90;;;;;;5008304;28;20648;-89
2023/11/23 07:50:43;;;;;;;20.02;9.65;;;10.30;99.90;;;;;;5023048;28;20112;-89
2023/11/23 07:53:08;;;;;;;20.48;10.90;;;10.30;99.90;;;;;;5012402;28;20041;-89
2023/11/23 07:55:34;;;;;;;14.55;9.30;;;10.30;99.90;;;;;;5010513;28;20029;-89
2023/11/23 07:58:00;;;;;;;17.40;9.02;;;10.30;99.90;;;;;;5015327;28;20121;-89
2023/11/23 08:00:27;;;;;;;16.77;9.98;;;10.40;99.90;;;;;;5012655;28;20393;-89
2023/11/23 08:02:54;;;;;;;22.35;11.15;;;10.40;99.90;;;;;;5022200;28;20032;-90
2023/11/23 08:05:20;;;;;;;23.55;10.95;;;10.50;99.90;;;;;;5019788;28;20053;-89
2023/11/23 08:07:47;;;;;;;26.50;11.43;;;10.50;99.90;;;;;;5013516;28;20065;-89
2023/11/23 08:10:15;;;;;;;17.92;11.00;;;10.50;99.90;;;;;;5010264;28;20026;-89
2023/11/23 08:12:42;;;;;;;17.50;9.93;;;10.50;99.90;;;;;;5019935;28;20095;-89
2023/11/23 08:15:09;;;;;;;15.57;9.77;;;10.50;99.90;;;;;;5024253;28;20030;-89
2023/11/23 08:17:36;;;;;;;17.92;9.90;;;10.50;99.90;;;;;;5028509;28;20109;-89
2023/11/23 08:20:06;;;;;;;18.65;10.27;;;10.50;99.90;;;;;;5010273;28;20033;-89
2023/11/23 08:22:32;;;;;;;22.10;10.43;;;10.60;99.90;;;;;;5010259;28;20133;-89
2023/11/23 08:24:57;;;;;;;17.65;10.23;;;10.60;99.90;;;;;;5004097;28;20112;-89
2023/11/23 08:27:24;;;;;;;20.35;10.20;;;10.60;99.90;;;;;;5019193;28;20040;-90
2023/11/23 08:29:50;;;;;;;15.98;10.02;;;10.60;99.90;;;;;;5029924;28;20116;-89
2023/11/23 08:32:15;;;;;;;17.55;10.82;;;10.70;99.90;;;;;;5027999;28;20505;-89
2023/11/23 08:34:41;;;;;;;17.17;10.38;;;10.70;99.90;;;;;;5035986;28;20035;-88
2023/11/23 08:37:07;;;;;;;19.60;10.27;;;10.70;99.90;;;;;;5028572;28;20018;-89
2023/11/23 08:39:33;;;;;;;18.50;9.68;;;10.80;99.90;;;;;;4995587;28;20128;-89
2023/11/23 08:41:58;;;;;;;16.40;10.68;;;10.80;99.90;;;;;;5001669;28;20045;-89
2023/11/23 08:44:24;;;;;;;17.50;9.65;;;10.90;99.90;;;;;;5009273;28;20029;-89
2023/11/23 08:46:50;;;;;;;20.92;10.35;;;10.90;99.90;;;;;;5030718;28;20026;-89
2023/11/23 08:49:15;;;;;;;19.77;9.40;;;11.00;99.90;;;;;;5011542;28;20029;-89
2023/11/23 08:51:41;;;;;;;16.70;8.77;;;11.00;99.90;;;;;;5015285;28;20596;-89
2023/11/23 08:54:08;;;;;;;19.85;8.45;;;11.00;99.90;;;;;;5014589;28;20040;-87
2023/11/23 08:56:35;;;;;;;14.02;8.02;;;11.00;99.90;;;;;;4996832;28;20109;-89
2023/11/23 08:59:01;;;;;;;13.20;8.25;;;11.00;99.90;;;;;;4999080;28;20032;-89
2023/11/23 09:01:27;;;;;;;14.50;8.52;;;11.00;99.90;;;;;;4999057;28;20033;-89
2023/11/23 09:03:54;;;;;;;18.90;8.98;;;11.00;99.90;;;;;;5032299;28;20031;-89
2023/11/23 09:06:20;;;;;;;12.57;8.18;;;11.00;99.90;;;;;;5015160;28;20363;-89
2023/11/23 09:08:46;;;;;;;15.05;8.40;;;11.10;99.90;;;;;;5003924;28;20408;-89
2023/11/23 09:11:11;;;;;;;22.77;9.05;;;11.10;99.90;;;;;;5018823;28;20017;-88
2023/11/23 09:13:37;;;;;;;16.23;7.55;;;11.10;99.90;;;;;;5018561;28;20061;-90
2023/11/23 09:16:03;;;;;;;14.40;7.47;;;11.20;99.90;;;;;;5019020;28;20488;-89
2023/11/23 09:18:29;;;;;;;16.95;7.47;;;11.20;99.90;;;;;;5013849;28;20041;-89
2023/11/23 09:20:54;;;;;;;17.27;8.18;;;11.20;99.90;;;;;;5008648;28;20026;-88
2023/11/23 09:23:20;;;;;;;15.20;6.38;;;11.20;99.90;;;;;;5010052;28;20029;-89
2023/11/23 09:25:46;;;;;;;16.33;6.65;;;11.20;99.90;;;;;;5017299;28;20042;-89
2023/11/23 09:28:12;;;;;;;13.52;6.53;;;11.30;99.90;;;;;;5029420;28;20022;-90
2023/11/23 09:30:38;;;;;;;15.45;6.82;;;11.40;99.90;;;;;;5009797;28;20036;-89
2023/11/23 09:33:09;;;;;;;11.98;6.60;;;11.40;99.90;;;;;;5012072;28;20401;-89
2023/11/23 09:35:38;;;;;;;10.43;6.68;;;11.40;99.90;;;;;;5018658;28;20114;-88
2023/11/23 09:38:04;;;;;;;13.77;6.65;;;11.40;99.90;;;;;;5026677;28;20153;-89
2023/11/23 09:40:30;;;;;;;12.32;7.00;;;11.50;99.90;;;;;;5006614;28;20018;-89
2023/11/23 09:42:56;;;;;;;12.20;7.47;;;11.50;99.90;;;;;;5014934;28;20040;-89
2023/11/23 09:45:24;;;;;;;12.25;6.60;;;11.40;99.90;;;;;;5005786;28;20478;-89
2023/11/23 09:47:50;;;;;;;15.15;6.25;;;11.40;99.90;;;;;;4998425;28;20038;-89
2023/11/23 09:50:19;;;;;;;18.23;7.55;;;11.40;99.90;;;;;;5016776;28;20034;-89
2023/11/23 09:52:45;;;;;;;14.27;7.63;;;11.40;99.90;;;;;;5017963;28;20393;-88
2023/11/23 09:55:16;;;;;;;10.23;6.85;;;11.50;99.90;;;;;;5013764;28;20053;-89
2023/11/23 09:57:48;;;;;;;18.00;7.75;;;11.50;99.90;;;;;;5008109;28;20037;-89
2023/11/23 10:00:14;;;;;;;;;;;11.50;99.90;;;;;;5037179;28;20545;-88
2023/11/23 10:02:42;;;;;;;11.02;6.65;;;11.50;99.90;;;;;;5009467;28;19959;-88
2023/11/23 10:05:11;;;;;;;15.52;6.47;;;11.60;99.90;;;;;;5026012;28;20030;-89
2023/11/23 10:07:38;;;;;;;14.15;6.15;;;11.60;99.90;;;;;;5011481;28;20033;-89
2023/11/23 10:10:05;;;;;;;10.68;6.93;;;11.70;99.90;;;;;;5009818;28;20030;-89
2023/11/23 10:12:32;;;;;;;9.48;5.60;;;11.80;99.90;;;;;;5026818;28;20479;-89
2023/11/23 10:14:58;;;;;;;14.90;6.32;;;11.80;99.90;;;;;;5024206;28;20036;-89
2023/11/23 10:17:23;;;;;;;13.88;6.53;;;11.80;99.90;;;;;;5036398;28;20029;-88
2023/11/23 10:19:49;;;;;;;12.52;6.10;;;11.90;99.90;;;;;;5031946;28;20018;-88
2023/11/23 10:22:15;;;;;;;14.88;7.05;;;11.90;99.90;;;;;;5017787;28;20029;-89
2023/11/23 10:24:50;;;;;;;13.68;6.90;;;11.80;99.90;;;;;;5014710;28;20028;-88
2023/11/23 10:27:20;;;;;;;14.20;6.82;;;11.90;99.90;;;;;;5011634;28;20030;-89
2023/11/23 10:29:46;;;;;;;11.43;6.80;;;11.90;99.90;;;;;;5007295;28;20033;-89
2023/11/23 10:32:18;;;;;;;12.68;6.80;;;11.90;99.90;;;;;;5014839;28;20100;-89
2023/11/23 10:34:43;;;;;;;8.83;5.93;;;11.90;99.90;;;;;;5017520;28;20021;-88
2023/11/23 10:37:14;;;;;;;12.45;6.65;;;12.00;99.90;;;;;;4999929;28;20871;-88
2023/11/23 10:39:40;;;;;;;16.48;6.78;;;11.90;99.90;;;;;;5017478;28;20486;-89
2023/11/23 10:42:07;;;;;;;11.45;6.32;;;12.00;99.90;;;;;;5017632;28;20061;-89
2023/11/23 10:44:33;;;;;;;13.73;7.10;;;12.00;99.90;;;;;;5004239;28;20078;-89
2023/11/23 10:47:04;;;;;;;10.82;6.10;;;12.00;99.90;;;;;;5023327;28;20474;-89
2023/11/23 10:49:34;;;;;;;10.75;5.35;;;12.10;99.90;;;;;;5008607;28;20374;-89
2023/11/23 10:51:59;;;;;;;13.73;5.13;;;12.10;99.90;;;;;;5018090;28;20029;-89
2023/11/23 10:54:25;;;;;;;10.63;5.72;;;12.20;99.90;;;;;;5018709;28;20507;-88
2023/11/23 10:56:54;;;;;;;10.60;5.32;;;12.10;99.90;;;;;;5002419;28;20033;-88
2023/11/23 10:59:21;;;;;;;11.73;5.30;;;12.20;99.90;;;;;;5031450;28;20122;-89
2023/11/23 11:01:50;;;;;;;16.48;5.22;;;12.20;99.90;;;;;;5025429;28;20559;-88
2023/11/23 11:04:15;;;;;;;9.48;4.30;;;12.20;99.90;;;;;;5013549;28;20120;-89
2023/11/23 11:06:41;;;;;;;9.27;4.25;;;12.20;99.90;;;;;;5028731;28;20045;-88
2023/11/23 11:09:14;;;;;;;11.18;3.65;;;12.20;99.90;;;;;;5012656;28;20030;-87
2023/11/23 11:11:53;;;;;;;10.65;4.28;;;12.20;99.90;;;;;;5013924;28;20053;-89
2023/11/23 11:14:29;;;;;;;8.07;2.75;;;12.20;99.90;;;;;;5017911;28;20029;-88
2023/11/23 11:17:02;;;;;;;12.38;3.30;;;12.30;99.90;;;;;;5033690;28;20068;-89
2023/11/23 11:19:28;;;;;;;12.23;3.85;;;12.30;99.90;;;;;;5020648;28;20041;-89
2023/11/23 11:22:00;;;;;;;11.18;3.08;;;12.30;99.90;;;;;;5018318;28;20018;-89
2023/11/23 11:24:25;;;;;;;7.63;2.87;;;12.40;99.90;;;;;;5007363;28;20034;-89
2023/11/23 11:27:01;;;;;;;11.40;2.30;;;12.40;99.90;;;;;;5014836;28;20025;-88
2023/11/23 11:29:30;;;;;;;8.65;2.50;;;12.40;99.90;;;;;;5030796;28;20141;-89
2023/11/23 11:31:57;;;;;;;6.25;2.00;;;12.50;99.90;;;;;;5026373;28;20030;-89
2023/11/23 11:34:26;;;;;;;6.68;2.13;;;12.50;99.90;;;;;;5028477;28;20030;-89
2023/11/23 11:36:59;;;;;;;8.05;2.50;;;12.60;99.90;;;;;;5011828;28;20029;-88
2023/11/23 11:39:35;;;;;;;9.82;1.80;;;12.60;99.90;;;;;;4998517;28;20050;-88
2023/11/23 11:42:01;;;;;;;7.68;2.03;;;12.60;99.90;;;;;;5014095;28;20132;-90
2023/11/23 11:44:30;;;;;;;4.43;1.73;;;12.60;99.90;;;;;;5011496;28;20036;-89
2023/11/23 11:46:56;;;;;;;5.97;1.65;;;12.60;99.90;;;;;;5011917;28;20068;-88
2023/11/23 11:49:26;;;;;;;11.43;1.48;;;12.60;99.90;;;;;;5008019;28;20027;-88
2023/11/23 11:51:51;;;;;;;4.00;1.08;;;12.60;99.90;;;;;;5011218;28;20032;-89
2023/11/23 11:54:25;;;;;;;5.20;1.65;;;12.60;99.90;;;;;;5014373;28;20030;-88
2023/11/23 11:56:51;;;;;;;5.70;1.38;;;12.70;99.90;;;;;;5016341;28;20088;-89
2023/11/23 11:59:18;;;;;;;5.13;1.27;;;12.70;99.90;;;;;;5009212;28;20030;-89
2023/11/23 12:01:43;;;;;;;9.38;1.67;;;12.70;99.90;;;;;;5027029;28;20109;-86
2023/11/23 12:04:16;;;;;;;7.88;1.20;;;12.70;99.90;;;;;;5011282;28;20064;-88
2023/11/23 12:06:48;;;;;;;5.05;1.67;;;12.70;99.90;;;;;;5015431;28;22295;-88
2023/11/23 12:09:18;;;;;;;6.88;2.42;;;12.70;99.90;;;;;;5008792;28;20057;-88
2023/11/23 12:11:45;;;;;;;7.70;1.42;;;12.80;99.90;;;;;;5013603;28;20029;-89
2023/11/23 12:14:11;;;;;;;5.95;0.90;;;12.80;99.90;;;;;;5008262;28;20033;-87
2023/11/23 12:16:37;;;;;;;8.95;1.52;;;12.90;99.90;;;;;;5010504;28;20025;-88
2023/11/23 12:19:20;;;;;;;8.45;1.52;;;12.80;99.90;;;;;;5012884;28;20413;-89
2023/11/23 12:21:57;;;;;;;;;;;12.80;99.90;;;;;;5029183;28;20138;-89
2023/11/23 12:24:28;;;;;;;6.57;1.38;;;12.70;99.90;;;;;;5011341;28;19916;-88
2023/11/23 12:26:55;;;;;;;6.05;1.30;;;12.70;99.90;;;;;;5014781;28;20386;-90
2023/11/23 12:29:25;;;;;;;7.75;1.65;;;12.70;99.90;;;;;;5016914;28;20128;-88
2023/11/23 12:31:51;;;;;;;7.80;1.15;;;12.70;99.90;;;;;;5014109;28;20014;-88